sensor_id;sensor_type;location;lat;lon;timestamp;P1;durP1;ratioP1;P2;durP2;ratioP2
16354;SDS011;8287;51.644;8.494;2023-01-30T00:00:35;44.50;;;41.05;;
16354;SDS011;8287;51.644;8.494;2023-01-30T00:03:03;65.57;;;61.78;;
16354;SDS011;8287;51.644;8.494;2023-01-30T00:05:30;64.57;;;60.42;;
16354;SDS011;8287;51.644;8.494;2023-01-30T00:07:56;54.08;;;50.28;;
16354;SDS011;8287;51.644;8.494;2023-01-30T00:10:23;51.83;;;48.38;;
16354;SDS011;8287;51.644;8.494;2023-01-30T00:12:49;59.45;;;55.47;;
16354;SDS011;8287;51.644;8.494;2023-01-30T00:15:16;74.15;;;69.43;;
16354;SDS011;8287;51.644;8.494;2023-01-30T00:17:43;72.45;;;68.07;;
16354;SDS011;8287;51.644;8.494;2023-01-30T00:20:11;62.38;;;58.72;;
16354;SDS011;8287;51.644;8.494;2023-01-30T00:22:38;104.10;;;94.57;;
16354;SDS011;8287;51.644;8.494;2023-01-30T00:25:05;48.20;;;44.80;;
16354;SDS011;8287;51.644;8.494;2023-01-30T00:27:32;61.22;;;56.90;;
16354;SDS011;8287;51.644;8.494;2023-01-30T00:29:58;49.70;;;46.28;;
16354;SDS011;8287;51.644;8.494;2023-01-30T00:32:26;48.58;;;45.20;;
16354;SDS011;8287;51.644;8.494;2023-01-30T00:34:52;59.13;;;55.53;;
16354;SDS011;8287;51.644;8.494;2023-01-30T00:37:20;50.67;;;47.35;;
16354;SDS011;8287;51.644;8.494;2023-01-30T00:39:47;54.53;;;51.03;;
16354;SDS011;8287;51.644;8.494;2023-01-30T00:42:13;47.67;;;44.40;;
16354;SDS011;8287;51.644;8.494;2023-01-30T00:44:57;52.97;;;49.38;;
16354;SDS011;8287;51.644;8.494;2023-01-30T00:47:42;62.03;;;57.95;;
16354;SDS011;8287;51.644;8.494;2023-01-30T00:50:09;44.08;;;41.20;;
16354;SDS011;8287;51.644;8.494;2023-01-30T00:52:37;48.97;;;45.70;;
16354;SDS011;8287;51.644;8.494;2023-01-30T00:55:04;53.42;;;49.40;;
16354;SDS011;8287;51.644;8.494;2023-01-30T00:57:32;55.15;;;51.65;;
16354;SDS011;8287;51.644;8.494;2023-01-30T00:59:58;51.92;;;48.42;;
16354;SDS011;8287;51.644;8.494;2023-01-30T01:02:25;44.95;;;41.80;;
16354;SDS011;8287;51.644;8.494;2023-01-30T01:04:51;49.55;;;45.97;;
16354;SDS011;8287;51.644;8.494;2023-01-30T01:07:18;47.45;;;43.97;;
16354;SDS011;8287;51.644;8.494;2023-01-30T01:09:46;58.05;;;54.00;;
16354;SDS011;8287;51.644;8.494;2023-01-30T01:12:12;50.25;;;46.58;;
16354;SDS011;8287;51.644;8.494;2023-01-30T01:14:39;60.60;;;56.65;;
16354;SDS011;8287;51.644;8.494;2023-01-30T01:17:05;56.63;;;52.85;;
16354;SDS011;8287;51.644;8.494;2023-01-30T01:19:32;47.05;;;43.97;;
16354;SDS011;8287;51.644;8.494;2023-01-30T01:21:59;44.15;;;41.55;;
16354;SDS011;8287;51.644;8.494;2023-01-30T01:24:25;53.50;;;49.90;;
16354;SDS011;8287;51.644;8.494;2023-01-30T01:26:54;48.00;;;44.88;;
16354;SDS011;8287;51.644;8.494;2023-01-30T01:29:20;131.52;;;121.22;;
16354;SDS011;8287;51.644;8.494;2023-01-30T01:31:47;56.42;;;52.22;;
16354;SDS011;8287;51.644;8.494;2023-01-30T01:34:14;44.38;;;41.08;;
16354;SDS011;8287;51.644;8.494;2023-01-30T01:36:40;70.90;;;66.60;;
16354;SDS011;8287;51.644;8.494;2023-01-30T01:39:07;48.85;;;45.47;;
16354;SDS011;8287;51.644;8.494;2023-01-30T01:41:33;47.80;;;44.28;;
16354;SDS011;8287;51.644;8.494;2023-01-30T01:44:01;55.10;;;51.28;;
16354;SDS011;8287;51.644;8.494;2023-01-30T01:46:31;72.13;;;67.47;;
16354;SDS011;8287;51.644;8.494;2023-01-30T01:49:01;64.95;;;61.08;;
16354;SDS011;8287;51.644;8.494;2023-01-30T01:51:32;84.78;;;79.13;;
16354;SDS011;8287;51.644;8.494;2023-01-30T01:54:04;54.70;;;51.08;;
16354;SDS011;8287;51.644;8.494;2023-01-30T01:56:34;61.95;;;57.88;;
16354;SDS011;8287;51.644;8.494;2023-01-30T01:59:08;45.85;;;42.35;;
16354;SDS011;8287;51.644;8.494;2023-01-30T02:01:38;46.65;;;43.42;;
16354;SDS011;8287;51.644;8.494;2023-01-30T02:04:05;42.35;;;38.90;;
16354;SDS011;8287;51.644;8.494;2023-01-30T02:06:34;49.40;;;46.10;;
16354;SDS011;8287;51.644;8.494;2023-01-30T02:09:03;45.00;;;41.72;;
16354;SDS011;8287;51.644;8.494;2023-01-30T02:11:33;44.90;;;41.95;;
16354;SDS011;8287;51.644;8.494;2023-01-30T02:14:08;43.78;;;40.97;;
16354;SDS011;8287;51.644;8.494;2023-01-30T02:16:36;45.90;;;42.78;;
16354;SDS011;8287;51.644;8.494;2023-01-30T02:19:03;46.80;;;43.70;;
16354;SDS011;8287;51.644;8.494;2023-01-30T02:21:54;62.10;;;58.22;;
16354;SDS011;8287;51.644;8.494;2023-01-30T02:24:42;43.25;;;40.15;;
16354;SDS011;8287;51.644;8.494;2023-01-30T02:27:28;53.63;;;49.95;;
16354;SDS011;8287;51.644;8.494;2023-01-30T02:30:21;89.57;;;84.72;;
16354;SDS011;8287;51.644;8.494;2023-01-30T02:33:18;67.22;;;62.95;;
16354;SDS011;8287;51.644;8.494;2023-01-30T02:35:54;76.97;;;72.75;;
16354;SDS011;8287;51.644;8.494;2023-01-30T02:38:31;77.82;;;73.63;;
16354;SDS011;8287;51.644;8.494;2023-01-30T02:41:13;98.40;;;93.38;;
16354;SDS011;8287;51.644;8.494;2023-01-30T02:43:50;53.55;;;50.00;;
16354;SDS011;8287;51.644;8.494;2023-01-30T02:46:29;65.40;;;61.55;;
16354;SDS011;8287;51.644;8.494;2023-01-30T02:48:59;93.10;;;88.45;;
16354;SDS011;8287;51.644;8.494;2023-01-30T02:51:33;68.97;;;65.38;;
16354;SDS011;8287;51.644;8.494;2023-01-30T02:54:04;63.70;;;60.00;;
16354;SDS011;8287;51.644;8.494;2023-01-30T02:56:40;144.68;;;130.23;;
16354;SDS011;8287;51.644;8.494;2023-01-30T02:59:09;55.35;;;52.08;;
16354;SDS011;8287;51.644;8.494;2023-01-30T03:01:47;74.30;;;70.22;;
16354;SDS011;8287;51.644;8.494;2023-01-30T03:04:34;57.75;;;54.42;;
16354;SDS011;8287;51.644;8.494;2023-01-30T03:07:21;65.25;;;61.50;;
16354;SDS011;8287;51.644;8.494;2023-01-30T03:10:00;56.72;;;53.33;;
16354;SDS011;8287;51.644;8.494;2023-01-30T03:12:36;79.55;;;75.28;;
16354;SDS011;8287;51.644;8.494;2023-01-30T03:15:09;61.67;;;58.10;;
16354;SDS011;8287;51.644;8.494;2023-01-30T03:17:41;82.45;;;78.38;;
16354;SDS011;8287;51.644;8.494;2023-01-30T03:20:10;112.30;;;106.50;;
16354;SDS011;8287;51.644;8.494;2023-01-30T03:22:39;84.47;;;80.30;;
16354;SDS011;8287;51.644;8.494;2023-01-30T03:25:06;404.67;;;211.80;;
16354;SDS011;8287;51.644;8.494;2023-01-30T03:27:34;91.35;;;86.65;;
16354;SDS011;8287;51.644;8.494;2023-01-30T03:30:01;78.43;;;74.47;;
16354;SDS011;8287;51.644;8.494;2023-01-30T03:32:27;96.38;;;91.43;;
16354;SDS011;8287;51.644;8.494;2023-01-30T03:34:55;82.10;;;77.70;;
16354;SDS011;8287;51.644;8.494;2023-01-30T03:37:22;79.55;;;75.25;;
16354;SDS011;8287;51.644;8.494;2023-01-30T03:39:48;118.20;;;110.22;;
16354;SDS011;8287;51.644;8.494;2023-01-30T03:42:15;73.50;;;69.18;;
16354;SDS011;8287;51.644;8.494;2023-01-30T03:44:42;98.55;;;93.65;;
16354;SDS011;8287;51.644;8.494;2023-01-30T03:47:08;61.92;;;57.97;;
16354;SDS011;8287;51.644;8.494;2023-01-30T03:49:35;66.30;;;62.38;;
16354;SDS011;8287;51.644;8.494;2023-01-30T03:52:03;72.47;;;68.28;;
16354;SDS011;8287;51.644;8.494;2023-01-30T03:54:29;91.72;;;86.72;;
16354;SDS011;8287;51.644;8.494;2023-01-30T03:56:56;74.88;;;70.55;;
16354;SDS011;8287;51.644;8.494;2023-01-30T03:59:23;65.03;;;60.67;;
16354;SDS011;8287;51.644;8.494;2023-01-30T04:01:49;70.88;;;66.47;;
16354;SDS011;8287;51.644;8.494;2023-01-30T04:04:16;71.72;;;66.43;;
16354;SDS011;8287;51.644;8.494;2023-01-30T04:06:42;69.18;;;65.10;;
16354;SDS011;8287;51.644;8.494;2023-01-30T04:09:10;93.85;;;88.10;;
16354;SDS011;8287;51.644;8.494;2023-01-30T04:11:37;68.93;;;64.70;;
16354;SDS011;8287;51.644;8.494;2023-01-30T04:14:03;64.78;;;60.67;;
16354;SDS011;8287;51.644;8.494;2023-01-30T04:16:30;67.13;;;62.65;;
16354;SDS011;8287;51.644;8.494;2023-01-30T04:18:57;76.82;;;71.90;;
16354;SDS011;8287;51.644;8.494;2023-01-30T04:21:23;67.93;;;63.78;;
16354;SDS011;8287;51.644;8.494;2023-01-30T04:23:50;72.93;;;68.25;;
16354;SDS011;8287;51.644;8.494;2023-01-30T04:26:18;107.57;;;102.63;;
16354;SDS011;8287;51.644;8.494;2023-01-30T04:28:44;97.70;;;92.55;;
16354;SDS011;8287;51.644;8.494;2023-01-30T04:31:11;82.18;;;77.35;;
16354;SDS011;8287;51.644;8.494;2023-01-30T04:33:38;129.40;;;123.18;;
16354;SDS011;8287;51.644;8.494;2023-01-30T04:36:05;64.72;;;60.28;;
16354;SDS011;8287;51.644;8.494;2023-01-30T04:38:33;85.20;;;80.32;;
16354;SDS011;8287;51.644;8.494;2023-01-30T04:41:00;96.93;;;91.88;;
16354;SDS011;8287;51.644;8.494;2023-01-30T04:43:29;96.80;;;91.53;;
16354;SDS011;8287;51.644;8.494;2023-01-30T04:45:56;106.25;;;100.60;;
16354;SDS011;8287;51.644;8.494;2023-01-30T04:48:23;69.40;;;64.93;;
16354;SDS011;8287;51.644;8.494;2023-01-30T04:50:51;86.30;;;81.30;;
16354;SDS011;8287;51.644;8.494;2023-01-30T04:53:19;91.95;;;87.00;;
16354;SDS011;8287;51.644;8.494;2023-01-30T04:55:46;101.28;;;95.60;;
16354;SDS011;8287;51.644;8.494;2023-01-30T04:58:14;84.38;;;79.97;;
16354;SDS011;8287;51.644;8.494;2023-01-30T05:00:42;93.63;;;88.28;;
16354;SDS011;8287;51.644;8.494;2023-01-30T05:03:08;69.50;;;65.43;;
16354;SDS011;8287;51.644;8.494;2023-01-30T05:05:35;69.30;;;65.28;;
16354;SDS011;8287;51.644;8.494;2023-01-30T05:08:01;66.40;;;62.05;;
16354;SDS011;8287;51.644;8.494;2023-01-30T05:10:28;64.57;;;60.78;;
16354;SDS011;8287;51.644;8.494;2023-01-30T05:12:55;79.72;;;75.18;;
16354;SDS011;8287;51.644;8.494;2023-01-30T05:15:21;59.30;;;54.53;;
16354;SDS011;8287;51.644;8.494;2023-01-30T05:17:49;60.35;;;56.53;;
16354;SDS011;8287;51.644;8.494;2023-01-30T05:20:16;62.90;;;58.67;;
16354;SDS011;8287;51.644;8.494;2023-01-30T05:22:43;64.97;;;61.13;;
16354;SDS011;8287;51.644;8.494;2023-01-30T05:25:09;55.58;;;51.97;;
16354;SDS011;8287;51.644;8.494;2023-01-30T05:27:36;63.75;;;59.90;;
16354;SDS011;8287;51.644;8.494;2023-01-30T05:30:03;61.10;;;57.33;;
16354;SDS011;8287;51.644;8.494;2023-01-30T05:32:30;58.85;;;55.05;;
16354;SDS011;8287;51.644;8.494;2023-01-30T05:34:58;59.17;;;55.38;;
16354;SDS011;8287;51.644;8.494;2023-01-30T05:37:25;76.18;;;71.38;;
16354;SDS011;8287;51.644;8.494;2023-01-30T05:39:51;61.08;;;57.00;;
16354;SDS011;8287;51.644;8.494;2023-01-30T05:42:18;55.50;;;52.00;;
16354;SDS011;8287;51.644;8.494;2023-01-30T05:44:45;55.75;;;52.30;;
16354;SDS011;8287;51.644;8.494;2023-01-30T05:47:11;59.55;;;56.03;;
16354;SDS011;8287;51.644;8.494;2023-01-30T05:49:38;63.28;;;59.80;;
16354;SDS011;8287;51.644;8.494;2023-01-30T05:52:06;54.08;;;50.92;;
16354;SDS011;8287;51.644;8.494;2023-01-30T05:54:33;62.33;;;58.60;;
16354;SDS011;8287;51.644;8.494;2023-01-30T05:57:00;71.07;;;67.35;;
16354;SDS011;8287;51.644;8.494;2023-01-30T05:59:26;63.67;;;59.97;;
16354;SDS011;8287;51.644;8.494;2023-01-30T06:01:53;54.53;;;50.90;;
16354;SDS011;8287;51.644;8.494;2023-01-30T06:04:19;61.03;;;57.75;;
16354;SDS011;8287;51.644;8.494;2023-01-30T06:06:47;67.28;;;63.47;;
16354;SDS011;8287;51.644;8.494;2023-01-30T06:09:15;58.67;;;55.53;;
16354;SDS011;8287;51.644;8.494;2023-01-30T06:11:42;53.00;;;49.78;;
16354;SDS011;8287;51.644;8.494;2023-01-30T06:14:09;67.25;;;63.13;;
16354;SDS011;8287;51.644;8.494;2023-01-30T06:16:35;61.42;;;57.83;;
16354;SDS011;8287;51.644;8.494;2023-01-30T06:19:02;66.13;;;62.33;;
16354;SDS011;8287;51.644;8.494;2023-01-30T06:21:29;63.40;;;60.00;;
16354;SDS011;8287;51.644;8.494;2023-01-30T06:23:56;60.83;;;57.45;;
16354;SDS011;8287;51.644;8.494;2023-01-30T06:26:24;55.75;;;53.03;;
16354;SDS011;8287;51.644;8.494;2023-01-30T06:28:50;64.38;;;60.97;;
16354;SDS011;8287;51.644;8.494;2023-01-30T06:31:17;61.63;;;58.53;;
16354;SDS011;8287;51.644;8.494;2023-01-30T06:33:44;70.18;;;66.85;;
16354;SDS011;8287;51.644;8.494;2023-01-30T06:36:10;66.13;;;62.70;;
16354;SDS011;8287;51.644;8.494;2023-01-30T06:38:37;61.13;;;57.90;;
16354;SDS011;8287;51.644;8.494;2023-01-30T06:41:03;98.18;;;81.55;;
16354;SDS011;8287;51.644;8.494;2023-01-30T06:43:32;52.42;;;49.67;;
16354;SDS011;8287;51.644;8.494;2023-01-30T06:45:58;66.63;;;63.38;;
16354;SDS011;8287;51.644;8.494;2023-01-30T06:48:25;83.13;;;78.78;;
16354;SDS011;8287;51.644;8.494;2023-01-30T06:50:52;68.35;;;64.95;;
16354;SDS011;8287;51.644;8.494;2023-01-30T06:53:18;61.53;;;58.33;;
16354;SDS011;8287;51.644;8.494;2023-01-30T06:55:46;64.60;;;61.50;;
16354;SDS011;8287;51.644;8.494;2023-01-30T06:58:13;61.97;;;58.72;;
16354;SDS011;8287;51.644;8.494;2023-01-30T07:00:41;59.30;;;56.13;;
16354;SDS011;8287;51.644;8.494;2023-01-30T07:03:09;83.70;;;79.65;;
16354;SDS011;8287;51.644;8.494;2023-01-30T07:05:36;64.70;;;61.22;;
16354;SDS011;8287;51.644;8.494;2023-01-30T07:08:03;79.53;;;75.88;;
16354;SDS011;8287;51.644;8.494;2023-01-30T07:10:29;68.63;;;65.28;;
16354;SDS011;8287;51.644;8.494;2023-01-30T07:12:56;64.05;;;60.65;;
16354;SDS011;8287;51.644;8.494;2023-01-30T07:15:23;62.58;;;59.45;;
16354;SDS011;8287;51.644;8.494;2023-01-30T07:17:51;66.63;;;63.30;;
16354;SDS011;8287;51.644;8.494;2023-01-30T07:20:17;67.00;;;63.25;;
16354;SDS011;8287;51.644;8.494;2023-01-30T07:22:47;61.90;;;58.60;;
16354;SDS011;8287;51.644;8.494;2023-01-30T07:25:15;63.00;;;59.85;;
16354;SDS011;8287;51.644;8.494;2023-01-30T07:27:42;69.03;;;65.35;;
16354;SDS011;8287;51.644;8.494;2023-01-30T07:30:08;61.60;;;58.17;;
16354;SDS011;8287;51.644;8.494;2023-01-30T07:32:36;59.60;;;56.13;;
16354;SDS011;8287;51.644;8.494;2023-01-30T07:35:04;60.60;;;57.25;;
16354;SDS011;8287;51.644;8.494;2023-01-30T07:37:31;46.88;;;44.70;;
16354;SDS011;8287;51.644;8.494;2023-01-30T07:39:58;36.33;;;34.70;;
16354;SDS011;8287;51.644;8.494;2023-01-30T07:42:24;35.33;;;33.72;;
16354;SDS011;8287;51.644;8.494;2023-01-30T07:44:51;31.83;;;30.33;;
16354;SDS011;8287;51.644;8.494;2023-01-30T07:47:18;45.60;;;43.17;;
16354;SDS011;8287;51.644;8.494;2023-01-30T07:49:45;50.53;;;47.95;;
16354;SDS011;8287;51.644;8.494;2023-01-30T07:52:13;40.70;;;38.97;;
16354;SDS011;8287;51.644;8.494;2023-01-30T07:54:39;36.38;;;34.75;;
16354;SDS011;8287;51.644;8.494;2023-01-30T07:57:06;42.90;;;40.72;;
16354;SDS011;8287;51.644;8.494;2023-01-30T07:59:32;60.92;;;58.00;;
16354;SDS011;8287;51.644;8.494;2023-01-30T08:01:59;58.05;;;55.50;;
16354;SDS011;8287;51.644;8.494;2023-01-30T08:04:25;43.95;;;41.92;;
16354;SDS011;8287;51.644;8.494;2023-01-30T08:06:52;53.80;;;51.30;;
16354;SDS011;8287;51.644;8.494;2023-01-30T08:09:20;40.35;;;38.30;;
16354;SDS011;8287;51.644;8.494;2023-01-30T08:11:47;50.58;;;48.13;;
16354;SDS011;8287;51.644;8.494;2023-01-30T08:14:13;50.05;;;47.25;;
16354;SDS011;8287;51.644;8.494;2023-01-30T08:16:40;46.13;;;43.72;;
16354;SDS011;8287;51.644;8.494;2023-01-30T08:19:06;47.05;;;44.50;;
16354;SDS011;8287;51.644;8.494;2023-01-30T08:21:33;50.90;;;48.40;;
16354;SDS011;8287;51.644;8.494;2023-01-30T08:24:00;47.42;;;44.95;;
16354;SDS011;8287;51.644;8.494;2023-01-30T08:26:28;51.58;;;49.13;;
16354;SDS011;8287;51.644;8.494;2023-01-30T08:28:54;54.70;;;52.30;;
16354;SDS011;8287;51.644;8.494;2023-01-30T08:31:21;47.10;;;44.80;;
16354;SDS011;8287;51.644;8.494;2023-01-30T08:33:48;47.20;;;44.78;;
16354;SDS011;8287;51.644;8.494;2023-01-30T08:36:14;42.72;;;39.80;;
16354;SDS011;8287;51.644;8.494;2023-01-30T08:38:41;44.85;;;42.38;;
16354;SDS011;8287;51.644;8.494;2023-01-30T08:41:08;41.92;;;39.38;;
16354;SDS011;8287;51.644;8.494;2023-01-30T08:43:36;40.08;;;37.85;;
16354;SDS011;8287;51.644;8.494;2023-01-30T08:46:02;39.45;;;37.53;;
16354;SDS011;8287;51.644;8.494;2023-01-30T08:48:29;41.05;;;38.83;;
16354;SDS011;8287;51.644;8.494;2023-01-30T08:50:56;37.20;;;35.30;;
16354;SDS011;8287;51.644;8.494;2023-01-30T08:53:22;35.65;;;33.85;;
16354;SDS011;8287;51.644;8.494;2023-01-30T08:55:50;33.70;;;32.13;;
16354;SDS011;8287;51.644;8.494;2023-01-30T08:58:17;36.13;;;34.33;;
16354;SDS011;8287;51.644;8.494;2023-01-30T09:00:45;33.88;;;32.17;;
16354;SDS011;8287;51.644;8.494;2023-01-30T09:03:12;37.50;;;35.47;;
16354;SDS011;8287;51.644;8.494;2023-01-30T09:05:39;38.35;;;36.45;;
16354;SDS011;8287;51.644;8.494;2023-01-30T09:08:06;33.38;;;31.45;;
16354;SDS011;8287;51.644;8.494;2023-01-30T09:10:32;45.40;;;42.15;;
16354;SDS011;8287;51.644;8.494;2023-01-30T09:12:59;37.53;;;35.63;;
16354;SDS011;8287;51.644;8.494;2023-01-30T09:15:25;36.92;;;34.78;;
16354;SDS011;8287;51.644;8.494;2023-01-30T09:17:53;36.45;;;34.10;;
16354;SDS011;8287;51.644;8.494;2023-01-30T09:20:20;35.72;;;33.70;;
16354;SDS011;8287;51.644;8.494;2023-01-30T09:22:47;33.13;;;31.17;;
16354;SDS011;8287;51.644;8.494;2023-01-30T09:25:13;30.88;;;28.52;;
16354;SDS011;8287;51.644;8.494;2023-01-30T09:27:41;35.97;;;33.90;;
16354;SDS011;8287;51.644;8.494;2023-01-30T09:30:09;41.45;;;38.15;;
16354;SDS011;8287;51.644;8.494;2023-01-30T09:32:36;30.80;;;28.55;;
16354;SDS011;8287;51.644;8.494;2023-01-30T09:35:04;33.67;;;31.55;;
16354;SDS011;8287;51.644;8.494;2023-01-30T09:37:32;34.28;;;32.42;;
16354;SDS011;8287;51.644;8.494;2023-01-30T09:39:59;36.00;;;33.58;;
16354;SDS011;8287;51.644;8.494;2023-01-30T09:48:19;37.33;;;34.97;;
16354;SDS011;8287;51.644;8.494;2023-01-30T09:51:04;39.38;;;37.22;;
16354;SDS011;8287;51.644;8.494;2023-01-30T09:53:51;37.50;;;35.10;;
16354;SDS011;8287;51.644;8.494;2023-01-30T09:56:28;37.90;;;35.50;;
16354;SDS011;8287;51.644;8.494;2023-01-30T09:58:56;36.22;;;34.25;;
16354;SDS011;8287;51.644;8.494;2023-01-30T10:01:25;39.10;;;36.00;;
16354;SDS011;8287;51.644;8.494;2023-01-30T10:04:01;36.42;;;34.25;;
16354;SDS011;8287;51.644;8.494;2023-01-30T10:06:38;33.40;;;31.25;;
16354;SDS011;8287;51.644;8.494;2023-01-30T10:09:16;39.67;;;37.53;;
16354;SDS011;8287;51.644;8.494;2023-01-30T10:11:55;39.97;;;37.63;;
16354;SDS011;8287;51.644;8.494;2023-01-30T10:14:36;36.35;;;33.60;;
16354;SDS011;8287;51.644;8.494;2023-01-30T10:17:22;37.13;;;35.05;;
16354;SDS011;8287;51.644;8.494;2023-01-30T10:19:58;35.90;;;34.10;;
16354;SDS011;8287;51.644;8.494;2023-01-30T10:22:40;36.45;;;34.53;;
16354;SDS011;8287;51.644;8.494;2023-01-30T10:25:22;36.38;;;34.05;;
16354;SDS011;8287;51.644;8.494;2023-01-30T10:27:53;50.08;;;47.35;;
16354;SDS011;8287;51.644;8.494;2023-01-30T10:30:24;33.95;;;31.77;;
16354;SDS011;8287;51.644;8.494;2023-01-30T10:32:52;39.03;;;36.85;;
16354;SDS011;8287;51.644;8.494;2023-01-30T10:35:22;36.97;;;34.90;;
16354;SDS011;8287;51.644;8.494;2023-01-30T10:37:57;34.40;;;32.38;;
16354;SDS011;8287;51.644;8.494;2023-01-30T10:40:30;39.17;;;35.30;;
16354;SDS011;8287;51.644;8.494;2023-01-30T10:43:05;37.28;;;34.92;;
16354;SDS011;8287;51.644;8.494;2023-01-30T10:45:42;35.78;;;33.67;;
16354;SDS011;8287;51.644;8.494;2023-01-30T10:48:22;35.58;;;33.58;;
16354;SDS011;8287;51.644;8.494;2023-01-30T10:51:10;36.83;;;33.35;;
16354;SDS011;8287;51.644;8.494;2023-01-30T10:53:45;40.08;;;37.33;;
16354;SDS011;8287;51.644;8.494;2023-01-30T10:56:19;37.30;;;34.72;;
16354;SDS011;8287;51.644;8.494;2023-01-30T10:58:53;37.45;;;35.08;;
16354;SDS011;8287;51.644;8.494;2023-01-30T11:01:30;35.50;;;33.20;;
16354;SDS011;8287;51.644;8.494;2023-01-30T11:04:02;39.03;;;36.05;;
16354;SDS011;8287;51.644;8.494;2023-01-30T11:06:32;37.70;;;35.13;;
16354;SDS011;8287;51.644;8.494;2023-01-30T11:09:01;35.53;;;33.67;;
16354;SDS011;8287;51.644;8.494;2023-01-30T11:11:29;35.20;;;33.20;;
16354;SDS011;8287;51.644;8.494;2023-01-30T11:14:00;33.55;;;31.77;;
16354;SDS011;8287;51.644;8.494;2023-01-30T11:16:28;56.38;;;52.97;;
16354;SDS011;8287;51.644;8.494;2023-01-30T11:18:55;35.10;;;32.75;;
16354;SDS011;8287;51.644;8.494;2023-01-30T11:21:26;37.90;;;35.28;;
16354;SDS011;8287;51.644;8.494;2023-01-30T11:23:54;34.78;;;32.38;;
16354;SDS011;8287;51.644;8.494;2023-01-30T11:26:23;35.83;;;33.88;;
16354;SDS011;8287;51.644;8.494;2023-01-30T11:28:54;39.33;;;36.50;;
16354;SDS011;8287;51.644;8.494;2023-01-30T11:31:21;37.60;;;35.28;;
16354;SDS011;8287;51.644;8.494;2023-01-30T11:33:58;38.92;;;36.83;;
16354;SDS011;8287;51.644;8.494;2023-01-30T11:36:27;38.70;;;36.67;;
16354;SDS011;8287;51.644;8.494;2023-01-30T11:38:57;38.75;;;36.20;;
16354;SDS011;8287;51.644;8.494;2023-01-30T11:41:27;36.42;;;34.28;;
16354;SDS011;8287;51.644;8.494;2023-01-30T11:43:58;35.90;;;33.65;;
16354;SDS011;8287;51.644;8.494;2023-01-30T11:46:27;43.90;;;41.50;;
16354;SDS011;8287;51.644;8.494;2023-01-30T11:48:59;41.95;;;38.80;;
16354;SDS011;8287;51.644;8.494;2023-01-30T11:51:28;34.10;;;31.95;;
16354;SDS011;8287;51.644;8.494;2023-01-30T11:53:59;46.97;;;44.50;;
16354;SDS011;8287;51.644;8.494;2023-01-30T11:56:31;33.40;;;30.77;;
16354;SDS011;8287;51.644;8.494;2023-01-30T11:59:04;39.00;;;36.30;;
16354;SDS011;8287;51.644;8.494;2023-01-30T12:01:33;36.00;;;33.78;;
16354;SDS011;8287;51.644;8.494;2023-01-30T12:04:03;37.40;;;35.05;;
16354;SDS011;8287;51.644;8.494;2023-01-30T12:06:32;35.25;;;33.35;;
16354;SDS011;8287;51.644;8.494;2023-01-30T12:09:00;32.03;;;30.00;;
16354;SDS011;8287;51.644;8.494;2023-01-30T12:11:39;35.03;;;32.92;;
16354;SDS011;8287;51.644;8.494;2023-01-30T12:14:16;36.42;;;34.00;;
16354;SDS011;8287;51.644;8.494;2023-01-30T12:16:52;33.45;;;31.33;;
16354;SDS011;8287;51.644;8.494;2023-01-30T12:19:38;31.10;;;29.08;;
16354;SDS011;8287;51.644;8.494;2023-01-30T12:22:15;35.75;;;33.67;;
16354;SDS011;8287;51.644;8.494;2023-01-30T12:24:49;36.78;;;34.20;;
16354;SDS011;8287;51.644;8.494;2023-01-30T12:27:26;34.67;;;32.55;;
16354;SDS011;8287;51.644;8.494;2023-01-30T12:30:03;54.38;;;51.03;;
16354;SDS011;8287;51.644;8.494;2023-01-30T12:32:37;120.95;;;94.75;;
16354;SDS011;8287;51.644;8.494;2023-01-30T12:35:09;33.70;;;31.80;;
16354;SDS011;8287;51.644;8.494;2023-01-30T12:37:43;32.17;;;29.90;;
16354;SDS011;8287;51.644;8.494;2023-01-30T12:40:23;33.95;;;31.95;;
16354;SDS011;8287;51.644;8.494;2023-01-30T12:43:05;29.88;;;27.98;;
16354;SDS011;8287;51.644;8.494;2023-01-30T12:45:56;30.02;;;27.95;;
16354;SDS011;8287;51.644;8.494;2023-01-30T12:48:44;31.50;;;29.58;;
16354;SDS011;8287;51.644;8.494;2023-01-30T12:51:29;31.95;;;30.52;;
16354;SDS011;8287;51.644;8.494;2023-01-30T12:54:10;34.95;;;32.42;;
16354;SDS011;8287;51.644;8.494;2023-01-30T12:56:51;34.90;;;32.92;;
16354;SDS011;8287;51.644;8.494;2023-01-30T12:59:27;31.00;;;28.88;;
16354;SDS011;8287;51.644;8.494;2023-01-30T13:02:04;33.13;;;30.98;;
16354;SDS011;8287;51.644;8.494;2023-01-30T13:04:49;32.15;;;30.60;;
16354;SDS011;8287;51.644;8.494;2023-01-30T13:07:26;32.38;;;30.20;;
16354;SDS011;8287;51.644;8.494;2023-01-30T13:10:01;30.42;;;28.60;;
16354;SDS011;8287;51.644;8.494;2023-01-30T13:12:36;32.53;;;30.25;;
16354;SDS011;8287;51.644;8.494;2023-01-30T13:15:13;33.40;;;31.88;;
16354;SDS011;8287;51.644;8.494;2023-01-30T14:21:38;39.70;;;38.10;;
16354;SDS011;8287;51.644;8.494;2023-01-30T14:24:05;37.63;;;35.72;;
16354;SDS011;8287;51.644;8.494;2023-01-30T14:26:58;35.53;;;33.72;;
16354;SDS011;8287;51.644;8.494;2023-01-30T14:32:34;34.65;;;33.03;;
16354;SDS011;8287;51.644;8.494;2023-01-30T14:35:21;39.85;;;37.90;;
16354;SDS011;8287;51.644;8.494;2023-01-30T14:37:51;37.67;;;36.08;;
16354;SDS011;8287;51.644;8.494;2023-01-30T14:40:37;33.60;;;32.20;;
16354;SDS011;8287;51.644;8.494;2023-01-30T14:43:33;37.58;;;36.00;;
16354;SDS011;8287;51.644;8.494;2023-01-30T14:46:02;34.03;;;32.60;;
16354;SDS011;8287;51.644;8.494;2023-01-30T14:48:31;29.83;;;28.52;;
16354;SDS011;8287;51.644;8.494;2023-01-30T14:51:10;37.35;;;35.80;;
16354;SDS011;8287;51.644;8.494;2023-01-30T14:53:47;35.97;;;34.58;;
16354;SDS011;8287;51.644;8.494;2023-01-30T14:56:16;41.28;;;39.38;;
16354;SDS011;8287;51.644;8.494;2023-01-30T14:58:50;39.30;;;37.35;;
16354;SDS011;8287;51.644;8.494;2023-01-30T15:01:18;40.35;;;38.40;;
16354;SDS011;8287;51.644;8.494;2023-01-30T15:03:45;40.85;;;38.63;;
16354;SDS011;8287;51.644;8.494;2023-01-30T15:06:13;48.25;;;45.67;;
16354;SDS011;8287;51.644;8.494;2023-01-30T15:08:42;38.67;;;36.08;;
16354;SDS011;8287;51.644;8.494;2023-01-30T15:11:12;39.65;;;37.13;;
16354;SDS011;8287;51.644;8.494;2023-01-30T15:13:46;41.63;;;39.42;;
16354;SDS011;8287;51.644;8.494;2023-01-30T15:19:28;42.30;;;39.45;;
16354;SDS011;8287;51.644;8.494;2023-01-30T15:22:08;45.35;;;43.22;;
16354;SDS011;8287;51.644;8.494;2023-01-30T15:24:46;36.55;;;34.33;;
16354;SDS011;8287;51.644;8.494;2023-01-30T15:27:46;40.50;;;37.90;;
16354;SDS011;8287;51.644;8.494;2023-01-30T15:30:21;38.10;;;35.85;;
16354;SDS011;8287;51.644;8.494;2023-01-30T15:33:06;34.67;;;32.60;;
16354;SDS011;8287;51.644;8.494;2023-01-30T15:35:38;34.17;;;32.10;;
16354;SDS011;8287;51.644;8.494;2023-01-30T15:38:16;37.17;;;35.38;;
16354;SDS011;8287;51.644;8.494;2023-01-30T15:40:49;40.67;;;38.72;;
16354;SDS011;8287;51.644;8.494;2023-01-30T15:43:20;38.97;;;37.20;;
16354;SDS011;8287;51.644;8.494;2023-01-30T15:46:06;38.10;;;35.20;;
16354;SDS011;8287;51.644;8.494;2023-01-30T15:48:59;41.17;;;38.85;;
16354;SDS011;8287;51.644;8.494;2023-01-30T15:51:36;42.38;;;39.95;;
16354;SDS011;8287;51.644;8.494;2023-01-30T15:54:07;39.85;;;37.67;;
16354;SDS011;8287;51.644;8.494;2023-01-30T15:56:36;39.60;;;37.25;;
16354;SDS011;8287;51.644;8.494;2023-01-30T15:59:06;38.55;;;36.42;;
16354;SDS011;8287;51.644;8.494;2023-01-30T16:01:44;37.05;;;35.17;;
16354;SDS011;8287;51.644;8.494;2023-01-30T16:04:23;36.83;;;34.83;;
16354;SDS011;8287;51.644;8.494;2023-01-30T16:06:52;32.55;;;30.58;;
16354;SDS011;8287;51.644;8.494;2023-01-30T16:09:19;37.28;;;35.13;;